ラスベガス の空港の天気 - METARとTAF

マッカラン国際空港 ( KLAS / LAS ) - アメリカ合衆国 ネバダ州ラスベガス
飛行場実況気象(Metar)
観測時間08/18 02:56 PDT (08/18 09:56 UTC)
風向・風速南南西 2m/s
視程10km以上
天気現象
なし
気温28.9℃
湿度20%
気圧1010.9hPa
METARKLAS 180956Z 20004KT 10SM CLR 29/04 A2994 RMK AO2 SLP109 T02890039
過去の天気等 Google飛行場航空写真 Wunderground天気予報

過去48時間のMETAR

飛行場予報(TAF)
発表時間: 8/18 01:59 PDT (8/18 08:59 UTC)
予報対象時間: 18日2時 PDT ~ 19日5時 PDT
風向・風速南南西 3m/s
視程10km以上
なし
18日4時 PDT から
風向・風速不定 3m/s
視程10km以上
少しの雲 雲底高度 3,960m
18日11時 PDT から
風向・風速東 3m/s
視程10km以上
少しの雲 雲底高度 3,960m
18日15時 PDT から
風向・風速南東 4m/s
視程10km以上
なし
18日22時 PDT から
風向・風速南西 4m/s
視程10km以上
なし
KLAS 180859Z 1809/1912 21005KT P6SM SKC
FM181100 VRB05KT P6SM FEW130
FM181800 08006KT P6SM FEW130
FM182200 13008KT P6SM SKC
FM190500 23008KT P6SM SKC